createdAt,value
2022-07-31T00:00:12.119Z,3.30
2022-07-31T00:02:41.688Z,3.30
2022-07-31T00:05:09.064Z,3.50
2022-07-31T00:07:35.906Z,3.22
2022-07-31T00:10:03.554Z,3.20
2022-07-31T00:12:30.262Z,3.25
2022-07-31T00:14:56.962Z,3.60
2022-07-31T00:17:23.643Z,3.28
2022-07-31T00:19:50.410Z,3.00
2022-07-31T00:22:16.959Z,3.40
2022-07-31T00:24:43.612Z,3.50
2022-07-31T00:27:10.377Z,3.92
2022-07-31T00:29:38.104Z,3.75
2022-07-31T00:32:04.977Z,3.95
2022-07-31T00:34:31.969Z,3.38
2022-07-31T00:36:58.654Z,3.90
2022-07-31T00:39:25.388Z,3.28
2022-07-31T00:41:52.129Z,3.40
2022-07-31T00:44:19.074Z,3.65
2022-07-31T00:46:45.637Z,3.22
2022-07-31T00:49:12.529Z,3.15
2022-07-31T00:51:40.190Z,3.28
2022-07-31T00:54:08.288Z,3.10
2022-07-31T00:56:35.309Z,3.38
2022-07-31T00:59:02.485Z,3.15
2022-07-31T01:01:29.301Z,2.97
2022-07-31T01:03:56.085Z,3.47
2022-07-31T01:06:22.901Z,3.30
2022-07-31T01:08:49.819Z,3.50
2022-07-31T01:11:30.574Z,3.40
2022-07-31T01:14:05.334Z,3.30
2022-07-31T01:16:39.875Z,3.33
2022-07-31T01:19:22.310Z,3.58
2022-07-31T01:22:34.221Z,3.45
2022-07-31T01:25:22.559Z,3.42
2022-07-31T01:28:37.243Z,3.53
2022-07-31T01:31:25.956Z,3.78
2022-07-31T01:34:01.869Z,3.85
2022-07-31T01:36:33.974Z,3.85
2022-07-31T01:39:02.618Z,4.00
2022-07-31T01:41:34.538Z,3.70
2022-07-31T01:44:04.244Z,4.03
2022-07-31T01:46:37.268Z,3.75
2022-07-31T01:49:12.413Z,4.20
2022-07-31T01:51:43.082Z,4.03
2022-07-31T01:54:11.655Z,4.00
2022-07-31T01:56:40.338Z,3.63
2022-07-31T01:59:20.118Z,3.72
2022-07-31T02:02:07.138Z,3.80
2022-07-31T02:04:37.710Z,4.10
2022-07-31T02:07:06.473Z,3.97
2022-07-31T02:09:35.177Z,4.05
2022-07-31T02:12:03.939Z,4.00
2022-07-31T02:14:36.516Z,4.10
2022-07-31T02:17:03.962Z,3.83
2022-07-31T02:19:59.809Z,4.20
2022-07-31T02:22:27.319Z,3.78
2022-07-31T02:24:54.264Z,3.92
2022-07-31T02:27:54.024Z,3.50
2022-07-31T02:30:13.406Z,4.20
2022-07-31T02:32:41.942Z,3.85
2022-07-31T02:35:09.772Z,3.80
2022-07-31T02:37:38.911Z,3.72
2022-07-31T02:40:07.914Z,4.20
2022-07-31T02:42:35.241Z,3.70
2022-07-31T02:45:02.852Z,4.20
2022-07-31T02:47:29.924Z,4.15
2022-07-31T02:49:59.548Z,3.83
2022-07-31T02:52:26.638Z,4.18
2022-07-31T02:54:53.802Z,3.90
2022-07-31T02:57:20.519Z,4.10
2022-07-31T02:59:47.226Z,4.15
2022-07-31T03:02:14.420Z,3.72
2022-07-31T03:04:43.446Z,4.28
2022-07-31T03:07:10.259Z,3.92
2022-07-31T03:09:37.187Z,3.67
2022-07-31T03:12:32.926Z,4.00
2022-07-31T03:15:01.146Z,4.28
2022-07-31T03:17:38.227Z,4.00
2022-07-31T03:20:11.287Z,4.40
2022-07-31T03:22:38.988Z,4.00
2022-07-31T03:25:06.892Z,4.43
2022-07-31T03:27:34.323Z,4.70
2022-07-31T03:30:01.190Z,4.45
2022-07-31T03:32:27.770Z,4.70
2022-07-31T03:34:54.439Z,4.60
2022-07-31T03:37:21.122Z,4.60
2022-07-31T03:39:47.923Z,4.78
2022-07-31T03:42:19.110Z,4.82
2022-07-31T03:44:48.256Z,4.70
2022-07-31T03:47:16.452Z,4.68
2022-07-31T03:49:43.897Z,4.85
2022-07-31T03:52:12.616Z,4.30
2022-07-31T03:54:40.369Z,4.50
2022-07-31T03:57:21.237Z,4.50
2022-07-31T03:59:54.725Z,4.47
2022-07-31T04:02:21.445Z,4.53
2022-07-31T04:04:53.673Z,5.15
2022-07-31T04:07:20.479Z,4.47
2022-07-31T04:09:47.265Z,4.82
2022-07-31T04:12:15.292Z,4.78
2022-07-31T04:14:42.734Z,4.22
2022-07-31T04:17:09.946Z,4.40
2022-07-31T04:19:36.643Z,4.20
2022-07-31T04:22:04.646Z,4.28
2022-07-31T04:24:32.834Z,4.22
2022-07-31T04:27:22.260Z,4.20
2022-07-31T04:29:48.998Z,4.13
2022-07-31T04:32:15.866Z,4.38
2022-07-31T04:34:48.175Z,4.43
2022-07-31T04:37:15.002Z,4.13
2022-07-31T04:39:41.711Z,4.38
2022-07-31T04:42:11.472Z,4.13
2022-07-31T04:44:38.426Z,4.70
2022-07-31T04:47:07.312Z,4.50
2022-07-31T04:49:38.057Z,5.20
2022-07-31T04:52:05.405Z,4.18
2022-07-31T04:54:32.999Z,4.50
2022-07-31T04:57:00.182Z,4.93
2022-07-31T04:59:58.200Z,5.18
2022-07-31T05:02:14.021Z,4.70
2022-07-31T05:04:40.631Z,4.57
2022-07-31T05:07:07.245Z,5.38
2022-07-31T05:09:33.876Z,5.05
2022-07-31T05:12:05.971Z,4.97
2022-07-31T05:14:33.058Z,5.00
2022-07-31T05:16:59.820Z,4.80
2022-07-31T05:19:34.186Z,4.57
2022-07-31T05:22:36.624Z,4.70
2022-07-31T05:25:22.713Z,4.63
2022-07-31T05:27:50.083Z,4.68
2022-07-31T05:30:17.028Z,4.80
2022-07-31T05:32:56.478Z,4.10
2022-07-31T05:35:23.086Z,3.88
2022-07-31T05:37:49.758Z,4.47
2022-07-31T05:40:17.934Z,4.28
2022-07-31T05:43:03.480Z,4.60
2022-07-31T05:45:48.461Z,4.10
2022-07-31T05:48:16.389Z,4.18
2022-07-31T05:50:43.877Z,4.10
2022-07-31T05:53:11.742Z,4.40
2022-07-31T05:55:56.954Z,4.70
2022-07-31T05:58:33.342Z,4.55
2022-07-31T06:01:00.756Z,4.25
2022-07-31T06:03:28.048Z,4.65
2022-07-31T06:06:03.732Z,4.95
2022-07-31T06:08:30.475Z,4.80
2022-07-31T06:10:57.375Z,4.35
2022-07-31T06:13:25.699Z,4.53
2022-07-31T06:15:53.252Z,4.88
2022-07-31T06:18:20.818Z,4.30
2022-07-31T06:20:48.003Z,4.78
2022-07-31T06:23:29.633Z,4.88
2022-07-31T06:26:13.615Z,4.78
2022-07-31T06:28:48.642Z,4.13
2022-07-31T06:31:21.841Z,4.70
2022-07-31T06:33:51.243Z,4.20
2022-07-31T06:36:22.317Z,4.30
2022-07-31T06:38:59.351Z,4.40
2022-07-31T06:41:26.117Z,4.47
2022-07-31T06:43:54.707Z,4.50
2022-07-31T06:46:48.878Z,4.63
2022-07-31T06:49:34.977Z,4.05
2022-07-31T06:52:02.225Z,4.13
2022-07-31T06:54:32.322Z,4.70
2022-07-31T06:56:59.270Z,4.28
2022-07-31T06:59:40.229Z,4.00
2022-07-31T07:02:08.453Z,3.95
2022-07-31T07:05:04.674Z,4.00
2022-07-31T07:07:22.505Z,3.63
2022-07-31T07:09:50.728Z,4.05
2022-07-31T07:12:33.463Z,3.70
2022-07-31T07:15:01.849Z,3.47
2022-07-31T07:17:29.875Z,3.40
2022-07-31T07:19:57.241Z,3.60
2022-07-31T07:22:31.806Z,3.50
2022-07-31T07:25:01.348Z,3.00
2022-07-31T07:27:28.383Z,3.50
2022-07-31T07:29:55.774Z,3.03
2022-07-31T07:32:22.364Z,3.38
2022-07-31T07:34:49.185Z,3.38
2022-07-31T07:37:47.852Z,3.30
2022-07-31T07:40:15.263Z,3.28
2022-07-31T07:42:43.348Z,3.13
2022-07-31T07:45:10.980Z,2.92
2022-07-31T07:47:53.711Z,3.35
2022-07-31T07:50:29.325Z,3.10
2022-07-31T07:53:28.982Z,3.10
2022-07-31T07:56:25.351Z,3.08
2022-07-31T07:59:21.612Z,2.97
2022-07-31T08:02:08.805Z,3.38
2022-07-31T08:04:36.569Z,2.88
2022-07-31T08:07:03.588Z,2.63
2022-07-31T08:09:38.967Z,2.97
2022-07-31T08:12:19.558Z,2.58
2022-07-31T08:15:06.771Z,2.58
2022-07-31T08:17:33.702Z,2.90
2022-07-31T08:20:00.453Z,3.08
2022-07-31T08:22:27.491Z,2.80
2022-07-31T08:24:54.320Z,2.88
2022-07-31T08:27:21.629Z,2.60
2022-07-31T08:29:48.750Z,2.85
2022-07-31T08:32:18.708Z,2.40
2022-07-31T08:35:04.086Z,3.00
2022-07-31T08:37:51.094Z,2.40
2022-07-31T08:40:19.846Z,2.45
2022-07-31T08:42:46.735Z,2.40
2022-07-31T08:45:14.101Z,2.40
2022-07-31T08:47:47.941Z,2.80
2022-07-31T08:50:20.697Z,2.58
2022-07-31T08:52:50.018Z,3.70
2022-07-31T08:55:57.027Z,2.75
2022-07-31T08:58:22.852Z,3.45
2022-07-31T09:00:51.439Z,5.63
2022-07-31T09:03:18.339Z,3.08
2022-07-31T09:05:45.024Z,3.40
2022-07-31T09:08:15.247Z,3.08
2022-07-31T09:10:49.980Z,2.35
2022-07-31T09:13:18.999Z,3.10
2022-07-31T09:15:46.960Z,5.63
2022-07-31T09:18:21.707Z,4.15
2022-07-31T09:20:56.638Z,11.13
2022-07-31T09:23:25.434Z,8.82
2022-07-31T09:25:57.500Z,11.88
2022-07-31T09:28:38.863Z,7.20
2022-07-31T09:31:07.838Z,3.63
2022-07-31T09:33:52.775Z,2.33
2022-07-31T09:36:37.978Z,2.40
2022-07-31T09:39:27.842Z,1.98
2022-07-31T09:42:16.434Z,1.98
2022-07-31T09:44:51.560Z,2.17
2022-07-31T09:47:22.890Z,1.85
2022-07-31T09:49:58.808Z,1.92
2022-07-31T09:52:28.289Z,2.10
2022-07-31T09:55:16.225Z,2.13
2022-07-31T09:57:57.553Z,1.90
2022-07-31T10:00:27.878Z,1.85
2022-07-31T10:02:57.316Z,1.85
2022-07-31T10:05:28.104Z,1.83
2022-07-31T10:08:06.079Z,1.98
2022-07-31T10:11:04.250Z,2.00
2022-07-31T10:13:46.643Z,2.08
2022-07-31T10:16:14.314Z,1.90
2022-07-31T10:18:57.265Z,1.92
2022-07-31T10:22:10.416Z,1.80
2022-07-31T10:24:50.210Z,1.80
2022-07-31T10:27:21.020Z,1.60
2022-07-31T10:29:59.827Z,1.85
2022-07-31T10:32:36.600Z,1.80
2022-07-31T10:35:31.996Z,1.70
2022-07-31T10:38:42.322Z,1.88
2022-07-31T10:41:52.349Z,2.00
2022-07-31T10:44:29.777Z,2.08
2022-07-31T10:47:18.655Z,2.33
2022-07-31T10:50:04.927Z,2.15
2022-07-31T10:53:16.382Z,1.80
2022-07-31T10:56:07.107Z,2.20
2022-07-31T10:58:57.651Z,2.35
2022-07-31T11:01:52.827Z,2.00
2022-07-31T11:04:43.068Z,2.00
2022-07-31T11:07:33.356Z,2.05
2022-07-31T11:10:17.708Z,2.15
2022-07-31T11:13:07.957Z,2.00
2022-07-31T11:16:07.595Z,1.90
2022-07-31T11:19:11.091Z,2.00
2022-07-31T11:21:40.680Z,1.90
2022-07-31T11:24:14.459Z,1.60
2022-07-31T11:26:50.458Z,1.60
2022-07-31T11:29:59.152Z,1.60
2022-07-31T11:32:25.875Z,1.50
2022-07-31T11:34:57.431Z,1.38
2022-07-31T11:37:25.606Z,1.55
2022-07-31T11:39:55.980Z,1.63
2022-07-31T11:42:28.199Z,1.50
2022-07-31T11:45:10.761Z,1.85
2022-07-31T11:48:11.169Z,1.58
2022-07-31T11:50:43.409Z,1.98
2022-07-31T11:53:12.861Z,1.70
2022-07-31T11:55:57.662Z,1.70
2022-07-31T11:58:26.359Z,1.80
2022-07-31T12:00:54.046Z,1.50
2022-07-31T12:03:25.708Z,1.60
2022-07-31T12:05:52.930Z,1.70
2022-07-31T12:08:20.420Z,1.75
2022-07-31T12:10:48.185Z,1.70
2022-07-31T12:13:16.599Z,1.80
2022-07-31T12:16:03.408Z,1.70
2022-07-31T12:18:32.667Z,1.60
2022-07-31T12:21:02.365Z,1.50
2022-07-31T12:23:45.900Z,1.60
2022-07-31T12:26:22.407Z,1.83
2022-07-31T12:29:06.126Z,1.80
2022-07-31T12:31:51.141Z,1.70
2022-07-31T12:34:27.350Z,1.90
2022-07-31T12:37:04.091Z,1.83
2022-07-31T12:39:54.775Z,1.70
2022-07-31T12:42:35.275Z,1.60
2022-07-31T12:45:18.380Z,1.90
2022-07-31T12:47:51.996Z,1.48
2022-07-31T12:50:30.116Z,1.80
2022-07-31T12:53:02.131Z,1.73
2022-07-31T12:55:30.477Z,1.70
2022-07-31T12:57:57.122Z,1.70
2022-07-31T13:00:25.410Z,1.73
2022-07-31T13:02:54.073Z,1.63
2022-07-31T13:05:21.692Z,1.70
2022-07-31T13:07:49.391Z,1.80
2022-07-31T13:10:20.854Z,1.67
2022-07-31T13:12:49.005Z,1.77
2022-07-31T13:15:20.005Z,1.80
2022-07-31T13:17:50.257Z,1.70
2022-07-31T13:20:17.796Z,1.60
2022-07-31T13:22:44.438Z,1.60
2022-07-31T13:25:11.128Z,1.33
2022-07-31T13:27:37.768Z,1.35
2022-07-31T13:30:05.472Z,1.55
2022-07-31T13:32:32.324Z,1.42
2022-07-31T13:35:26.861Z,1.33
2022-07-31T13:37:45.802Z,1.48
2022-07-31T13:40:12.491Z,1.60
2022-07-31T13:42:39.055Z,1.58
2022-07-31T13:45:08.367Z,1.60
2022-07-31T13:47:51.479Z,1.60
2022-07-31T13:50:19.465Z,1.50
2022-07-31T13:52:46.078Z,1.50
2022-07-31T13:55:12.759Z,1.60
2022-07-31T13:57:39.376Z,1.40
2022-07-31T14:00:06.704Z,1.63
2022-07-31T14:02:33.423Z,1.80
2022-07-31T14:05:00.237Z,1.67
2022-07-31T14:07:48.100Z,1.50
2022-07-31T14:10:19.862Z,1.60
2022-07-31T14:12:47.316Z,1.80
2022-07-31T14:15:13.964Z,1.67
2022-07-31T14:17:40.717Z,1.50
2022-07-31T14:20:07.863Z,1.52
2022-07-31T14:22:34.631Z,1.70
2022-07-31T14:25:01.335Z,1.50
2022-07-31T14:27:28.024Z,1.55
2022-07-31T14:29:54.703Z,1.52
2022-07-31T14:32:21.468Z,1.80
2022-07-31T14:34:49.254Z,1.70
2022-07-31T14:37:15.959Z,1.63
2022-07-31T14:39:43.153Z,1.90
2022-07-31T14:42:10.607Z,1.60
2022-07-31T14:44:37.243Z,1.50
2022-07-31T14:47:04.609Z,2.97
2022-07-31T14:50:06.692Z,1.75
2022-07-31T14:52:18.938Z,1.63
2022-07-31T14:54:45.485Z,1.60
2022-07-31T14:57:12.340Z,1.85
2022-07-31T14:59:46.645Z,1.67
2022-07-31T15:02:13.184Z,1.50
2022-07-31T15:04:39.770Z,1.50
2022-07-31T15:07:33.629Z,1.38
2022-07-31T15:09:53.048Z,1.42
2022-07-31T15:12:19.671Z,1.25
2022-07-31T15:14:46.455Z,1.30
2022-07-31T15:17:13.008Z,1.38
2022-07-31T15:19:39.738Z,1.52
2022-07-31T15:22:15.451Z,1.50
2022-07-31T15:24:48.566Z,1.80
2022-07-31T15:27:20.186Z,1.67
2022-07-31T15:30:04.457Z,1.40
2022-07-31T15:32:37.799Z,1.55
2022-07-31T15:35:07.957Z,1.40
2022-07-31T15:37:36.735Z,1.50
2022-07-31T15:40:08.596Z,1.60
2022-07-31T15:42:37.173Z,1.50
2022-07-31T15:45:04.104Z,1.50
2022-07-31T15:47:30.944Z,1.55
2022-07-31T15:49:57.542Z,1.63
2022-07-31T15:52:24.736Z,1.40
2022-07-31T15:54:52.388Z,2.17
2022-07-31T15:57:21.079Z,7.35
2022-07-31T15:59:48.749Z,9.23
2022-07-31T16:02:15.612Z,5.07
2022-07-31T16:04:51.591Z,4.72
2022-07-31T16:08:32.496Z,2.00
2022-07-31T16:10:17.921Z,21.75
2022-07-31T16:12:48.669Z,9.65
2022-07-31T16:15:18.336Z,6.97
2022-07-31T16:17:45.100Z,19.38
2022-07-31T16:20:25.467Z,8.82
2022-07-31T16:22:58.537Z,7.28
2022-07-31T16:25:26.062Z,2.97
2022-07-31T16:27:53.203Z,3.88
2022-07-31T16:30:20.748Z,2.70
2022-07-31T16:32:47.834Z,1.83
2022-07-31T16:35:14.520Z,2.00
2022-07-31T16:37:51.111Z,2.00
2022-07-31T16:40:29.324Z,3.63
2022-07-31T16:43:47.457Z,1.92
2022-07-31T16:45:51.049Z,3.15
2022-07-31T16:48:18.177Z,2.80
2022-07-31T16:50:45.850Z,2.55
2022-07-31T16:54:11.077Z,2.00
2022-07-31T16:56:06.674Z,3.00
2022-07-31T16:58:33.324Z,2.80
2022-07-31T17:01:00.221Z,2.88
2022-07-31T17:03:59.173Z,2.60
2022-07-31T17:06:13.809Z,4.78
2022-07-31T17:08:40.478Z,11.98
2022-07-31T17:11:07.125Z,10.70
2022-07-31T17:13:33.873Z,10.18
2022-07-31T17:16:00.653Z,2.00
2022-07-31T17:18:27.442Z,2.08
2022-07-31T17:20:55.801Z,2.30
2022-07-31T17:23:43.122Z,2.20
2022-07-31T17:26:21.072Z,1.80
2022-07-31T17:28:48.624Z,1.77
2022-07-31T17:31:15.262Z,1.80
2022-07-31T17:33:49.621Z,1.70
2022-07-31T17:36:26.946Z,1.50
2022-07-31T17:38:53.480Z,1.52
2022-07-31T17:41:25.122Z,1.70
2022-07-31T17:43:54.342Z,1.63
2022-07-31T17:46:34.245Z,1.60
2022-07-31T17:49:06.113Z,1.60
2022-07-31T17:51:32.913Z,1.60
2022-07-31T17:53:59.912Z,1.60
2022-07-31T17:56:27.261Z,1.80
2022-07-31T17:58:54.103Z,1.60
2022-07-31T18:01:24.383Z,1.40
2022-07-31T18:03:54.091Z,1.70
2022-07-31T18:06:20.890Z,1.75
2022-07-31T18:08:47.562Z,1.70
2022-07-31T18:11:14.304Z,1.65
2022-07-31T18:13:48.566Z,1.40
2022-07-31T18:16:21.103Z,1.65
2022-07-31T18:18:50.314Z,1.65
2022-07-31T18:21:20.535Z,1.55
2022-07-31T18:23:47.648Z,1.55
2022-07-31T18:26:14.766Z,1.65
2022-07-31T18:28:41.529Z,1.80
2022-07-31T18:31:12.835Z,1.58
2022-07-31T18:33:54.970Z,1.90
2022-07-31T18:36:21.643Z,1.77
2022-07-31T18:38:48.393Z,1.58
2022-07-31T18:41:14.956Z,1.60
2022-07-31T18:43:41.635Z,1.85
2022-07-31T18:46:08.205Z,1.60
2022-07-31T18:48:34.916Z,1.60
2022-07-31T18:51:04.817Z,1.58
2022-07-31T18:53:32.809Z,1.95
2022-07-31T18:55:59.450Z,1.90
2022-07-31T18:58:26.457Z,2.05
2022-07-31T19:00:55.125Z,2.00
2022-07-31T19:03:23.207Z,1.90
2022-07-31T19:05:49.875Z,1.92
2022-07-31T19:08:16.648Z,2.05
2022-07-31T19:10:43.209Z,1.95
2022-07-31T19:13:19.003Z,2.03
2022-07-31T19:15:50.939Z,2.00
2022-07-31T19:18:17.830Z,2.00
2022-07-31T19:21:00.295Z,2.10
2022-07-31T19:23:35.926Z,1.85
2022-07-31T19:26:04.735Z,2.00
2022-07-31T19:28:32.772Z,1.90
2022-07-31T19:30:59.796Z,1.95
2022-07-31T19:33:26.887Z,1.80
2022-07-31T19:36:00.307Z,1.80
2022-07-31T19:38:29.981Z,1.98
2022-07-31T19:40:57.107Z,1.80
2022-07-31T19:43:23.916Z,1.80
2022-07-31T19:45:57.712Z,2.10
2022-07-31T19:48:29.068Z,3.10
2022-07-31T19:50:55.711Z,3.53
2022-07-31T19:53:22.413Z,3.60
2022-07-31T19:55:49.149Z,4.40
2022-07-31T19:58:18.350Z,3.90
2022-07-31T20:00:45.065Z,3.60
2022-07-31T20:03:32.437Z,3.08
2022-07-31T20:06:02.243Z,3.10
2022-07-31T20:08:34.814Z,2.72
2022-07-31T20:11:07.275Z,2.42
2022-07-31T20:13:42.720Z,2.63
2022-07-31T20:16:37.259Z,2.55
2022-07-31T20:19:07.579Z,2.50
2022-07-31T20:21:35.009Z,2.67
2022-07-31T20:27:02.533Z,2.53
2022-07-31T20:29:44.081Z,2.30
2022-07-31T20:32:16.559Z,2.10
2022-07-31T20:34:48.499Z,2.20
2022-07-31T20:37:22.619Z,2.20
2022-07-31T20:39:52.058Z,2.50
2022-07-31T20:42:18.776Z,2.50
2022-07-31T20:44:48.539Z,2.15
2022-07-31T20:47:24.702Z,2.22
2022-07-31T20:49:52.620Z,2.30
2022-07-31T20:52:19.645Z,2.00
2022-07-31T20:54:59.460Z,2.30
2022-07-31T20:57:31.668Z,2.28
2022-07-31T21:00:01.704Z,2.30
2022-07-31T21:02:32.395Z,2.28
2022-07-31T21:04:59.090Z,2.38
2022-07-31T21:07:38.054Z,2.28
2022-07-31T21:10:08.024Z,2.33
2022-07-31T21:12:35.411Z,2.33
2022-07-31T21:15:05.059Z,2.30
2022-07-31T21:18:01.544Z,2.20
2022-07-31T21:20:32.899Z,2.67
2022-07-31T21:23:23.769Z,2.17
2022-07-31T21:25:56.548Z,2.40
2022-07-31T21:28:37.400Z,2.63
2022-07-31T21:31:07.533Z,2.50
2022-07-31T21:33:41.295Z,2.05
2022-07-31T21:36:12.891Z,2.30
2022-07-31T21:38:43.167Z,2.10
2022-07-31T21:41:10.189Z,2.50
2022-07-31T21:43:58.672Z,2.40
2022-07-31T21:46:44.010Z,2.30
2022-07-31T21:49:18.110Z,2.08
2022-07-31T21:51:48.483Z,2.58
2022-07-31T21:54:15.137Z,2.40
2022-07-31T21:56:44.749Z,2.28
2022-07-31T21:59:11.535Z,2.10
2022-07-31T22:01:41.590Z,2.33
2022-07-31T22:04:34.494Z,2.75
2022-07-31T22:07:01.312Z,2.40
2022-07-31T22:09:28.124Z,2.53
2022-07-31T22:12:05.694Z,2.50
2022-07-31T22:14:32.645Z,2.58
2022-07-31T22:16:59.199Z,2.40
2022-07-31T22:19:26.151Z,2.40
2022-07-31T22:21:53.304Z,2.60
2022-07-31T22:24:20.039Z,2.47
2022-07-31T22:26:47.602Z,2.60
2022-07-31T22:29:18.382Z,2.30
2022-07-31T22:31:49.828Z,2.38
2022-07-31T22:34:37.198Z,2.25
2022-07-31T22:37:05.355Z,2.58
2022-07-31T22:39:32.342Z,3.00
2022-07-31T22:42:00.313Z,2.83
2022-07-31T22:44:27.333Z,2.42
2022-07-31T22:46:56.167Z,2.55
2022-07-31T22:49:22.819Z,2.50
2022-07-31T22:51:49.521Z,2.47
2022-07-31T22:54:16.215Z,2.80
2022-07-31T22:56:42.809Z,2.80
2022-07-31T22:59:09.360Z,2.90
2022-07-31T23:01:36.133Z,3.00
2022-07-31T23:04:04.076Z,2.97
2022-07-31T23:06:32.744Z,2.33
2022-07-31T23:08:59.983Z,2.42
2022-07-31T23:11:26.688Z,2.53
2022-07-31T23:13:54.794Z,3.20
2022-07-31T23:16:21.586Z,2.67
2022-07-31T23:18:49.923Z,2.60
2022-07-31T23:21:17.238Z,2.75
2022-07-31T23:23:48.004Z,3.20
2022-07-31T23:26:19.492Z,2.83
2022-07-31T23:28:46.845Z,2.72
2022-07-31T23:31:14.303Z,3.90
2022-07-31T23:33:41.163Z,4.95
2022-07-31T23:36:08.045Z,4.10
2022-07-31T23:38:34.676Z,3.35
2022-07-31T23:41:01.464Z,3.67
2022-07-31T23:43:28.178Z,2.72
2022-07-31T23:45:55.052Z,3.00
2022-07-31T23:48:21.785Z,2.33
2022-07-31T23:50:52.159Z,2.67
2022-07-31T23:53:18.758Z,2.60
2022-07-31T23:55:45.443Z,2.30
2022-07-31T23:58:12.098Z,2.20
